CDH1 weather

Deerhurst Resort Airport
Huntsville, Ontario, Canada

Public forecast

Using degrees Celsius for public forecast. Weather courtesy of forecast.io.

METAR (pilot weather report)

Closest report is Muskoka Airport, 23.7 nm (43.8 km) SSW. Retrieved 2019/05/23 08:00 UTC (13 minutes ago):

CYQA 230800Z AUTO 14007KT 9SM BKN200 11/05 A2999 RMK SLP159

TAF (pilot weather forecast)

Forecast is more than 12 hours old.

Closest forecast is Muskoka Airport, 23.7 nm (43.8 km) SSW. Retrieved 2019/05/22 20:00 UTC (12 hours ago):

TAF CYQA 221938Z 2220/2302 13010G20KT P6SM OVC090 TEMPO 2220/2222 P6SM -SHRA FM222200 13008G18KT P6SM OVC070 TEMPO 2222/2301 P6SM -SHRA OVC050 FM230100 13008KT P6SM OVC030 RMK FCST BASED ON AUTO OBS. NXT FCST WILL BE ISSUED AT 231145Z